Startpagina
METAR-TAF:

METAR-TAF

Vliegvelden :

Koeweit, Koeweit

breedte: 29-13N, lengte: 047-59E, hoogte: 55 m

Actueel weer

Dit bericht is 59 minuten geleden gemaakt, om 16:00 UTC
Wind 7 kt uit het westnoordwesten
Temperatuur 40°C
Vochtigheid 11%
Druk 998 hPa
Zicht 10 km of meer
geen wolken onder 1500 m en geen cumulonimbus

METAR: OKBK 151600Z 29007KT CAVOK 40/04 Q0998 NOSIG

Tijdstip: 19:59 (16:59 UTC)

Verwachting

Dit bericht is 6 uur en het 14 minuten geleden gemaakt, om 10:45 UTC
Verwachting geldig van 15 om 12 UTC tot 16 om 18 UTC
Wind 8 kt uit het noorden met uitschieters tot 18 kt
Zicht: 7000 m
Onbewolkt
Tijdelijke
van 15 om 15 UTC tot 15 om 24 UTC
Wind 3 kt uit variabele richting

TAF: OKBK 151045Z 1512/1618 35008G18KT 7000 SKC TEMPO 1515/1524 VRB03KT

Waarnemingen en weersverwachtingen van meer dan 4000 vliegvelden (METAR en TAF).

De beschikbare stations zijn de gele en rode punten op de kaart.

Ga met uw muis naar het station om de naam te zien.

Klik dan om waarnemingen en weersverwachtingen te zien.

kaart wijzigen: klik op de groene knoppen met een zwart kruis om in te zoomen, op de groene knop met een streepje om uit te zoomen of op de groene pijlen voor aangrenzende kaarten.


METAR-TAF: